Time;durP1;ratioP1;P1;durP2;ratioP2;P2;SDS_P1;SDS_P2;PMS_P1;PMS_P2;Temp;Humidity;BMP_temperature;BMP_pressure;BME280_temperature;BME280_humidity;BME280_pressure;Samples;Min_cycle;Max_cycle;Signal;HPM_P1;HPM_P2
2022/04/11 00:01:23;;;;;;;6.97;4.15;;;;;;;0.38;89.83;102017.91;5018632;28;20455;-68
2022/04/11 00:03:49;;;;;;;9.20;5.30;;;;;;;0.36;90.28;102018.75;5053691;28;20032;-67
2022/04/11 00:06:14;;;;;;;9.13;4.70;;;;;;;0.33;90.35;102016.97;5054319;28;20025;-68
2022/04/11 00:08:40;;;;;;;9.68;5.00;;;;;;;0.31;90.58;102013.47;5053614;28;20048;-68
2022/04/11 00:11:05;;;;;;;7.85;4.60;;;;;;;0.30;90.48;102010.81;5052463;28;20391;-68
2022/04/11 00:13:31;;;;;;;10.23;5.15;;;;;;;0.29;90.36;102014.28;5031343;28;20098;-67
2022/04/11 00:15:57;;;;;;;9.63;4.78;;;;;;;0.27;90.68;102016.88;5053290;28;20407;-67
2022/04/11 00:18:22;;;;;;;8.90;4.50;;;;;;;0.25;90.73;102008.16;5035388;28;20029;-67
2022/04/11 00:20:48;;;;;;;9.00;3.88;;;;;;;0.24;91.00;102006.41;5053393;28;20215;-67
2022/04/11 00:23:14;;;;;;;5.90;4.18;;;;;;;0.23;90.78;102005.50;5053786;28;20272;-68
2022/04/11 00:25:39;;;;;;;6.30;3.80;;;;;;;0.21;91.19;101998.56;5019569;28;20740;-68
2022/04/11 00:28:05;;;;;;;8.68;4.45;;;;;;;0.19;91.11;102001.13;5035539;28;20579;-67
2022/04/11 00:30:31;;;;;;;6.20;4.07;;;;;;;0.19;91.05;101998.53;5036324;28;20725;-67
2022/04/11 00:32:56;;;;;;;5.97;3.60;;;;;;;0.19;91.33;101990.72;5053436;28;20040;-67
2022/04/11 00:35:22;;;;;;;8.52;4.03;;;;;;;0.19;91.46;101995.91;5034990;28;20318;-68
2022/04/11 00:37:47;;;;;;;8.48;4.50;;;;;;;0.17;91.70;101989.81;5053465;28;20182;-68
2022/04/11 00:40:13;;;;;;;11.15;5.15;;;;;;;0.18;91.97;101995.88;5053494;28;20043;-68
2022/04/11 00:42:39;;;;;;;8.10;4.30;;;;;;;0.16;91.57;101987.19;5053267;28;20826;-68
2022/04/11 00:45:05;;;;;;;7.30;4.18;;;;;;;0.17;92.16;101983.72;5053780;28;20029;-68
2022/04/11 00:47:31;;;;;;;9.93;4.82;;;;;;;0.17;91.97;101984.59;5053825;28;20472;-68
2022/04/11 00:50:06;;;;;;;6.70;4.93;;;;;;;0.17;92.34;101982.00;5054176;28;20031;-68
2022/04/11 00:52:34;;;;;;;10.65;4.97;;;;;;;0.20;92.31;101986.34;5053558;28;20068;-68
2022/04/11 00:55:02;;;;;;;8.52;5.10;;;;;;;0.20;92.88;101983.75;5053271;28;20136;-68
2022/04/11 00:57:28;;;;;;;10.48;5.32;;;;;;;0.25;93.32;101980.38;5053752;28;20033;-68
2022/04/11 00:59:54;;;;;;;8.63;5.25;;;;;;;0.29;93.15;101978.72;5053418;28;20582;-68
2022/04/11 01:02:19;;;;;;;9.15;5.00;;;;;;;0.29;93.07;101989.13;5036741;28;20651;-68
2022/04/11 01:04:45;;;;;;;11.38;5.00;;;;;;;0.27;92.89;101988.19;5036135;28;20040;-68
2022/04/11 01:07:10;;;;;;;10.93;5.47;;;;;;;0.25;93.02;101987.31;5022970;28;20675;-68
2022/04/11 01:09:36;;;;;;;8.55;5.35;;;;;;;0.24;92.77;101990.78;5053394;28;20581;-68
2022/04/11 01:12:02;;;;;;;9.70;5.40;;;;;;;0.20;92.59;101984.63;5034777;28;20143;-68
2022/04/11 01:14:28;;;;;;;14.55;5.07;;;;;;;0.19;92.80;101988.09;5035236;28;20448;-67
2022/04/11 01:16:54;;;;;;;8.45;5.30;;;;;;;0.15;92.50;101996.72;5053013;28;20120;-68
2022/04/11 01:19:20;;;;;;;8.70;5.20;;;;;;;0.13;92.46;101994.06;5034267;28;20028;-68
2022/04/11 01:21:49;;;;;;;9.10;5.03;;;;;;;0.11;92.84;102005.34;5035288;28;20031;-68
2022/04/11 01:24:18;;;;;;;10.23;5.20;;;;;;;0.09;92.47;101991.41;5034635;28;20043;-67
2022/04/11 01:26:44;;;;;;;7.47;5.22;;;;;;;0.07;92.85;101998.31;5053262;28;20436;-67
2022/04/11 01:29:11;;;;;;;9.70;5.38;;;;;;;0.06;93.03;101991.34;5039446;28;20420;-67
2022/04/11 01:31:37;;;;;;;10.23;5.32;;;;;;;0.04;92.83;101990.47;5034665;28;20127;-67
2022/04/11 01:34:02;;;;;;;10.88;5.28;;;;;;;0.04;92.87;101988.72;5036252;28;20032;-67
2022/04/11 01:36:28;;;;;;;10.57;5.13;;;;;;;0.02;92.82;101989.53;5035082;28;20078;-67
2022/04/11 01:38:54;;;;;;;12.68;5.47;;;;;;;0.01;93.14;101987.78;5034210;28;20028;-67
2022/04/11 01:41:22;;;;;;;9.18;5.55;;;;;;;0.01;93.00;101988.69;5053067;28;20111;-67
2022/04/11 01:43:47;;;;;;;9.48;5.60;;;;;;;0.02;93.82;101984.34;5033643;28;20032;-67
2022/04/11 01:46:13;;;;;;;10.13;5.55;;;;;;;0.02;93.81;101984.34;5051407;28;20032;-67
2022/04/11 01:48:39;;;;;;;13.25;6.03;;;;;;;0.03;94.02;101981.75;5035351;28;20122;-67
2022/04/11 01:51:05;;;;;;;9.90;6.50;;;;;;;0.05;94.54;101982.66;5052871;28;20039;-67
2022/04/11 01:53:31;;;;;;;8.63;5.85;;;;;;;0.07;94.71;101973.16;5030332;28;20121;-67
2022/04/11 01:55:56;;;;;;;8.70;6.07;;;;;;;0.07;95.13;101983.59;5030524;28;20037;-67
2022/04/11 01:58:22;;;;;;;10.57;5.85;;;;;;;0.10;95.40;101973.19;5030717;28;20029;-69
2022/04/11 02:00:47;;;;;;;9.57;6.10;;;;;;;0.13;95.15;101969.78;5032255;28;20570;-67
2022/04/11 02:03:13;;;;;;;10.07;6.63;;;;;;;0.17;95.98;101973.28;5031803;28;20025;-67
2022/04/11 02:05:40;;;;;;;11.43;7.57;;;;;;;0.23;96.49;101970.78;5032446;28;20035;-67
2022/04/11 02:08:07;;;;;;;10.80;7.00;;;;;;;0.26;96.78;101970.81;5032962;28;20751;-68
2022/04/11 02:10:37;;;;;;;11.90;7.60;;;;;;;0.28;96.63;101966.53;5031714;28;20055;-67
2022/04/11 02:13:03;;;;;;;14.45;7.22;;;;;;;0.33;97.55;101966.59;5031634;28;20391;-67
2022/04/11 02:15:29;;;;;;;11.15;7.18;;;;;;;0.34;97.70;101961.41;5032705;28;20113;-67
2022/04/11 02:17:55;;;;;;;10.07;7.30;;;;;;;0.35;98.04;101968.38;5032487;28;20079;-67
2022/04/11 02:20:21;;;;;;;11.43;7.20;;;;;;;0.35;98.16;101963.16;5031340;28;20041;-67
2022/04/11 02:22:54;;;;;;;12.63;7.43;;;;;;;0.34;98.05;101961.41;5030435;28;20037;-67
2022/04/11 02:25:22;;;;;;;10.48;6.88;;;;;;;0.34;98.05;101956.22;5031704;28;20040;-67
2022/04/11 02:27:48;;;;;;;9.15;7.13;;;;;;;0.35;98.45;101957.06;5027857;28;20036;-67
2022/04/11 02:30:15;;;;;;;9.05;6.82;;;;;;;0.34;98.44;101964.03;5032080;28;20037;-67
2022/04/11 02:32:41;;;;;;;11.00;6.75;;;;;;;0.33;98.37;101964.84;5031398;28;20037;-67
2022/04/11 02:35:07;;;;;;;10.52;6.35;;;;;;;0.31;98.61;101963.06;5030213;28;20040;-67
2022/04/11 02:37:33;;;;;;;8.45;6.38;;;;;;;0.31;98.04;101963.97;5031401;28;20091;-67
2022/04/11 02:39:59;;;;;;;9.57;7.03;;;;;;;0.31;98.17;101971.78;5031727;28;20058;-67
2022/04/11 02:42:26;;;;;;;10.90;6.93;;;;;;;0.28;98.30;101969.16;5029970;28;20048;-67
2022/04/11 02:44:52;;;;;;;8.90;6.45;;;;;;;0.27;98.47;101969.97;5031567;28;20626;-67
2022/04/11 02:47:18;;;;;;;14.07;6.30;;;;;;;0.23;98.21;101965.59;5030099;28;20204;-67
2022/04/11 02:49:44;;;;;;;10.98;6.63;;;;;;;0.22;98.06;101964.69;5030594;28;20073;-67
2022/04/11 02:52:10;;;;;;;10.82;6.65;;;;;;;0.20;98.11;101963.81;5046539;28;20049;-67
2022/04/11 02:54:39;;;;;;;12.93;6.78;;;;;;;0.21;98.83;101965.56;5029848;28;20041;-68
2022/04/11 02:57:05;;;;;;;9.77;6.88;;;;;;;0.22;98.86;101958.63;5044876;28;20627;-67
2022/04/11 02:59:32;;;;;;;9.35;6.43;;;;;;;0.23;98.75;101955.16;5025092;28;20526;-68
2022/04/11 03:01:58;;;;;;;12.90;6.43;;;;;;;0.24;98.83;101959.50;5031314;28;20104;-67
2022/04/11 03:04:24;;;;;;;10.25;6.70;;;;;;;0.24;99.33;101963.00;5031320;28;20161;-67
2022/04/11 03:06:49;;;;;;;11.75;6.95;;;;;;;0.29;99.38;101956.97;5030572;28;20088;-67
2022/04/11 03:09:15;;;;;;;9.05;5.93;;;;;;;0.32;99.63;101957.03;5030509;28;20168;-67
2022/04/11 03:11:40;;;;;;;10.68;5.95;;;;;;;0.33;99.55;101954.44;5030825;28;20502;-67
2022/04/11 03:14:06;;;;;;;9.40;5.70;;;;;;;0.34;99.68;101945.78;5032142;28;20029;-67
2022/04/11 03:16:32;;;;;;;8.65;5.85;;;;;;;0.36;99.99;101948.41;5029474;28;20463;-67
2022/04/11 03:18:58;;;;;;;11.27;5.90;;;;;;;0.40;100.00;101948.47;5041903;28;20069;-67
2022/04/11 03:21:23;;;;;;;11.15;5.72;;;;;;;0.45;100.00;101947.66;5031022;28;20140;-67
2022/04/11 03:23:49;;;;;;;11.73;6.07;;;;;;;0.50;100.00;101948.63;5030859;28;20404;-67
2022/04/11 03:26:14;;;;;;;10.80;6.65;;;;;;;0.56;100.00;101943.50;5031585;28;20041;-67
2022/04/11 03:28:40;;;;;;;8.45;5.88;;;;;;;0.62;100.00;101940.09;5025073;28;20047;-67
2022/04/11 03:31:05;;;;;;;12.07;6.07;;;;;;;0.72;100.00;101933.25;5029464;28;20029;-67
2022/04/11 03:33:31;;;;;;;11.20;5.70;;;;;;;0.81;100.00;101930.75;5029599;28;20036;-67
2022/04/11 03:35:56;;;;;;;9.45;5.45;;;;;;;0.88;100.00;101926.50;5030869;28;20075;-67
2022/04/11 03:38:22;;;;;;;8.88;5.20;;;;;;;0.96;100.00;101930.09;5029862;28;20504;-66
2022/04/11 03:40:47;;;;;;;8.90;5.30;;;;;;;1.06;100.00;101936.28;5029332;28;20111;-67
2022/04/11 03:43:13;;;;;;;12.48;5.45;;;;;;;1.12;100.00;101935.47;5030783;28;20048;-66
2022/04/11 03:45:39;;;;;;;14.38;5.18;;;;;;;1.20;100.00;101933.84;5031037;28;20419;-67
2022/04/11 03:48:04;;;;;;;9.32;5.32;;;;;;;1.29;100.00;101947.00;5029293;28;21553;-67
2022/04/11 03:50:30;;;;;;;8.85;5.10;;;;;;;1.36;100.00;101934.88;5028608;28;20123;-67
2022/04/11 03:52:56;;;;;;;10.98;5.22;;;;;;;1.41;100.00;101935.78;5030014;28;20052;-67
2022/04/11 03:55:22;;;;;;;7.65;4.63;;;;;;;1.47;100.00;101935.84;5029715;28;20633;-67
2022/04/11 03:57:47;;;;;;;7.70;4.45;;;;;;;1.52;100.00;101927.22;5018652;28;20033;-67
2022/04/11 04:00:13;;;;;;;8.60;4.95;;;;;;;1.57;100.00;101933.34;5029382;28;20041;-67
2022/04/11 04:02:39;;;;;;;12.85;4.68;;;;;;;1.62;100.00;101929.03;5030627;28;20492;-66
2022/04/11 04:05:05;;;;;;;8.38;4.53;;;;;;;1.64;100.00;101927.34;5030476;28;20116;-67
2022/04/11 04:07:30;;;;;;;9.98;5.22;;;;;;;1.66;100.00;101925.59;5031152;28;20121;-67
2022/04/11 04:09:56;;;;;;;7.85;4.60;;;;;;;1.70;100.00;101929.13;5031228;28;20290;-66
2022/04/11 04:12:22;;;;;;;9.27;4.88;;;;;;;1.71;100.00;101923.91;5030597;28;20044;-67
2022/04/11 04:14:48;;;;;;;10.60;5.03;;;;;;;1.72;100.00;101928.28;5028906;28;20468;-67
2022/04/11 04:17:14;;;;;;;9.23;4.47;;;;;;;1.74;100.00;101923.94;5032210;28;20490;-67
2022/04/11 04:19:40;;;;;;;9.75;4.82;;;;;;;1.76;100.00;101926.56;5031501;28;20040;-67
2022/04/11 04:22:05;;;;;;;11.27;4.85;;;;;;;1.76;100.00;101930.03;5030601;28;20041;-67
2022/04/11 04:24:36;;;;;;;11.10;4.47;;;;;;;1.80;100.00;101924.84;5031041;28;20029;-67
2022/04/11 04:27:03;;;;;;;10.00;4.00;;;;;;;1.81;100.00;101937.03;5034946;28;20051;-67
2022/04/11 04:29:28;;;;;;;7.97;4.30;;;;;;;1.82;100.00;101937.06;5032149;28;20033;-67
2022/04/11 04:31:54;;;;;;;6.47;3.92;;;;;;;1.83;100.00;101946.63;5031572;28;20335;-67
2022/04/11 04:34:20;;;;;;;9.63;3.95;;;;;;;1.84;100.00;101947.50;5032213;28;20107;-67
2022/04/11 04:36:47;;;;;;;8.80;4.40;;;;;;;1.85;99.88;101944.06;5032316;28;20135;-67
2022/04/11 04:39:12;;;;;;;7.18;4.00;;;;;;;1.85;99.64;101944.06;5034224;28;20036;-67
2022/04/11 04:41:38;;;;;;;9.75;4.07;;;;;;;1.85;99.67;101939.69;5034398;28;20037;-67
2022/04/11 04:44:06;;;;;;;9.85;3.95;;;;;;;1.87;99.77;101931.88;5033956;28;20473;-67
2022/04/11 04:46:35;;;;;;;9.93;3.95;;;;;;;1.87;99.51;101937.09;5032667;28;20080;-67
2022/04/11 04:49:01;;;;;;;14.30;4.63;;;;;;;1.90;99.65;101931.88;5029178;28;20072;-67
2022/04/11 04:51:26;;;;;;;6.72;3.92;;;;;;;1.92;99.73;101939.75;5026113;28;20547;-67
2022/04/11 04:53:52;;;;;;;9.63;3.58;;;;;;;1.91;99.62;101933.66;5051724;28;20036;-67
2022/04/11 04:56:17;;;;;;;7.13;4.22;;;;;;;1.93;99.44;101931.94;5052041;28;20055;-67
2022/04/11 04:58:46;;;;;;;9.80;3.90;;;;;;;1.94;99.54;101927.56;5051445;28;20172;-67
2022/04/11 05:01:15;;;;;;;8.80;3.95;;;;;;;1.96;99.45;101921.47;5051870;28;20964;-67
2022/04/11 05:03:40;;;;;;;7.53;3.70;;;;;;;1.96;99.45;101929.31;5052331;28;20038;-67
2022/04/11 05:06:06;;;;;;;7.57;4.10;;;;;;;1.96;98.96;101929.31;5050971;28;21981;-67
2022/04/11 05:08:32;;;;;;;6.63;3.95;;;;;;;1.99;99.36;101928.47;5051721;28;20036;-67
2022/04/11 05:10:58;;;;;;;9.10;3.83;;;;;;;1.99;99.27;101926.75;5052049;28;20174;-67
2022/04/11 05:13:24;;;;;;;9.18;4.00;;;;;;;2.01;99.20;101929.34;5033902;28;20071;-67
2022/04/11 05:15:50;;;;;;;8.45;3.50;;;;;;;2.01;99.00;101927.63;5051457;28;20123;-67
2022/04/11 05:18:15;;;;;;;5.40;3.60;;;;;;;2.01;99.39;101930.25;5051779;28;20499;-67
2022/04/11 05:20:41;;;;;;;7.80;3.90;;;;;;;2.05;99.13;101930.28;5051052;28;20059;-67
2022/04/11 05:23:07;;;;;;;8.55;3.75;;;;;;;2.06;99.08;101932.03;5051771;28;20075;-67
2022/04/11 05:25:32;;;;;;;6.25;4.00;;;;;;;2.06;99.21;101926.81;5051580;28;20511;-67
2022/04/11 05:27:58;;;;;;;7.13;4.03;;;;;;;2.08;99.16;101933.78;5050335;28;20031;-67
2022/04/11 05:30:24;;;;;;;9.65;4.38;;;;;;;2.12;99.11;101937.31;5033778;28;20453;-67
2022/04/11 05:32:49;;;;;;;9.50;4.10;;;;;;;2.11;98.90;101936.41;5052848;28;20772;-67
2022/04/11 05:35:15;;;;;;;7.53;4.15;;;;;;;2.13;98.96;101936.44;5052786;28;20056;-67
2022/04/11 05:37:41;;;;;;;8.85;4.15;;;;;;;2.11;98.62;101931.19;5053289;28;20380;-67
2022/04/11 05:40:09;;;;;;;6.35;3.88;;;;;;;2.13;98.56;101936.44;5021114;28;20412;-68
2022/04/11 05:42:37;;;;;;;9.82;4.00;;;;;;;2.14;98.65;101940.78;5049394;28;20941;-67
2022/04/11 05:45:03;;;;;;;8.98;4.20;;;;;;;2.13;98.53;101939.03;5052914;28;20036;-67
2022/04/11 05:47:30;;;;;;;6.65;4.18;;;;;;;2.15;98.59;101937.31;5052487;28;20033;-67
2022/04/11 05:49:55;;;;;;;4.80;4.07;;;;;;;2.15;98.50;101935.59;5018450;28;20039;-67
2022/04/11 05:52:21;;;;;;;9.40;4.00;;;;;;;2.17;98.73;101932.97;5033904;28;20455;-68
2022/04/11 05:54:46;;;;;;;7.38;3.60;;;;;;;2.17;98.45;101930.34;5052494;28;20122;-67
2022/04/11 05:57:12;;;;;;;6.00;4.22;;;;;;;2.17;98.64;101925.13;5032988;28;20071;-67
2022/04/11 05:59:38;;;;;;;6.90;3.95;;;;;;;2.18;98.54;101926.88;5051326;28;20028;-67
2022/04/11 06:02:03;;;;;;;5.05;3.97;;;;;;;2.19;98.55;101928.63;5050848;28;20042;-67
2022/04/11 06:04:29;;;;;;;6.93;3.95;;;;;;;2.24;98.50;101931.28;5033260;28;20119;-67
2022/04/11 06:06:55;;;;;;;7.18;4.53;;;;;;;2.26;98.76;101925.19;5016773;28;20149;-67
2022/04/11 06:09:20;;;;;;;6.72;4.03;;;;;;;2.31;98.56;101939.16;5052210;28;20596;-67
2022/04/11 06:11:45;;;;;;;7.85;4.15;;;;;;;2.36;98.72;101938.31;5051061;28;20185;-67
2022/04/11 06:14:11;;;;;;;7.13;4.22;;;;;;;2.41;98.64;101939.22;5050221;28;20044;-67
2022/04/11 06:16:37;;;;;;;8.57;4.22;;;;;;;2.47;98.69;101934.03;5050104;28;20548;-68
2022/04/11 06:19:02;;;;;;;10.18;4.53;;;;;;;2.51;98.74;101941.00;5049821;28;20079;-67
2022/04/11 06:21:28;;;;;;;9.27;4.45;;;;;;;2.56;98.93;101943.69;5032123;28;20383;-67
2022/04/11 06:23:53;;;;;;;9.27;4.25;;;;;;;2.61;98.91;101941.09;5050093;28;20043;-66
2022/04/11 06:26:19;;;;;;;8.65;3.78;;;;;;;2.66;98.61;101936.75;5031894;28;20064;-67
2022/04/11 06:28:44;;;;;;;8.35;3.70;;;;;;;2.70;98.85;101946.34;5050495;28;20040;-67
2022/04/11 06:31:14;;;;;;;5.95;3.97;;;;;;;2.77;98.81;101942.91;5032057;28;20036;-67
2022/04/11 06:33:40;;;;;;;5.90;4.18;;;;;;;2.83;99.13;101942.06;5049683;28;20201;-68
2022/04/11 06:36:06;;;;;;;9.20;3.65;;;;;;;2.89;98.85;101942.06;5049694;28;20021;-67
2022/04/11 06:38:31;;;;;;;7.85;4.00;;;;;;;2.93;98.90;101942.97;5050519;28;20051;-68
2022/04/11 06:40:57;;;;;;;7.80;4.00;;;;;;;3.00;98.47;101950.00;5048673;28;20404;-68
2022/04/11 06:43:23;;;;;;;9.32;3.95;;;;;;;3.04;98.45;101945.66;5032112;28;20028;-67
2022/04/11 06:45:49;;;;;;;5.75;3.40;;;;;;;3.09;98.35;101943.91;5049781;28;20037;-67
2022/04/11 06:48:15;;;;;;;6.22;3.72;;;;;;;3.17;98.22;101951.78;5050033;28;20557;-67
2022/04/11 06:50:40;;;;;;;9.60;3.78;;;;;;;3.22;98.53;101950.06;5049895;28;20452;-67
2022/04/11 06:53:06;;;;;;;7.32;3.50;;;;;;;3.29;98.29;101951.81;5050024;28;20124;-67
2022/04/11 06:55:32;;;;;;;6.38;3.60;;;;;;;3.35;98.34;101946.63;5049459;28;20116;-68
2022/04/11 06:57:59;;;;;;;5.50;3.83;;;;;;;3.40;98.41;101944.84;5049792;28;20491;-68
2022/04/11 07:00:25;;;;;;;7.63;3.65;;;;;;;3.47;98.39;101942.25;5050159;28;20032;-68
2022/04/11 07:02:50;;;;;;;7.68;3.88;;;;;;;3.49;98.36;101945.78;5049975;28;20025;-67
2022/04/11 07:05:16;;;;;;;8.77;4.03;;;;;;;3.55;97.91;101942.28;5049575;28;20032;-67
2022/04/11 07:07:41;;;;;;;7.88;3.75;;;;;;;3.61;97.80;101953.66;5049233;28;20403;-67
2022/04/11 07:10:09;;;;;;;6.78;3.70;;;;;;;3.66;97.96;101944.03;5049666;28;20033;-67
2022/04/11 07:12:41;;;;;;;4.63;3.67;;;;;;;3.72;97.96;101945.81;5049451;28;20556;-68
2022/04/11 07:15:08;;;;;;;8.18;3.92;;;;;;;3.77;98.42;101946.66;5049488;28;20086;-68
2022/04/11 07:17:34;;;;;;;9.25;4.13;;;;;;;3.87;98.40;101954.53;5049009;28;20134;-68
2022/04/11 07:20:01;;;;;;;7.10;3.80;;;;;;;3.93;97.99;101958.03;5049276;28;20596;-67
2022/04/11 07:22:26;;;;;;;9.55;3.90;;;;;;;4.00;98.49;101951.06;5049147;28;20033;-68
2022/04/11 07:24:52;;;;;;;9.25;3.78;;;;;;;4.07;98.12;101954.53;5049195;28;20193;-67
2022/04/11 07:27:17;;;;;;;7.03;4.43;;;;;;;4.14;97.97;101956.25;5049346;28;20257;-67
2022/04/11 07:29:43;;;;;;;8.20;3.92;;;;;;;4.22;98.16;101956.28;5049138;28;20411;-67
2022/04/11 07:32:08;;;;;;;5.30;4.00;;;;;;;4.29;98.24;101951.88;5046217;28;20615;-72
2022/04/11 07:34:34;;;;;;;8.38;4.15;;;;;;;4.36;98.33;101948.38;5032494;28;20033;-68
2022/04/11 07:36:59;;;;;;;7.80;4.18;;;;;;;4.44;98.28;101946.63;5052099;28;20169;-72
2022/04/11 07:39:25;;;;;;;6.15;3.83;;;;;;;4.57;98.05;101942.22;5032327;28;20106;-69
2022/04/11 07:41:53;;;;;;;8.90;4.13;;;;;;;4.67;98.23;101943.06;5031554;28;22125;-68
2022/04/11 07:44:19;;;;;;;8.70;3.90;;;;;;;4.75;97.77;101943.06;5026173;28;20028;-68
2022/04/11 07:46:45;;;;;;;5.57;3.88;;;;;;;4.86;98.02;101943.00;5046322;28;20025;-68
2022/04/11 07:49:10;;;;;;;7.03;3.80;;;;;;;4.95;97.79;101949.97;5032170;28;20031;-68
2022/04/11 07:51:36;;;;;;;9.70;4.00;;;;;;;5.03;97.84;101943.78;5032698;28;20032;-69
2022/04/11 07:54:01;;;;;;;10.85;4.05;;;;;;;5.11;97.20;101951.66;5052478;28;20040;-68
2022/04/11 07:56:28;;;;;;;9.90;4.20;;;;;;;5.20;97.46;101942.84;5033875;28;20055;-68
2022/04/11 07:58:57;;;;;;;6.55;3.72;;;;;;;5.26;96.90;101940.19;5049992;28;20071;-68
2022/04/11 08:01:23;;;;;;;5.38;3.95;;;;;;;5.37;96.93;101939.25;5033793;28;20333;-68
2022/04/11 08:03:49;;;;;;;11.82;4.40;;;;;;;5.50;97.06;101935.66;5017402;28;20033;-68
2022/04/11 08:06:15;;;;;;;5.78;3.78;;;;;;;5.59;96.24;101929.47;5032567;28;20051;-68
2022/04/11 08:08:47;;;;;;;10.63;3.90;;;;;;;5.64;96.55;101932.94;5034027;28;20033;-68
2022/04/11 08:11:15;;;;;;;5.37;3.67;;;;;;;5.80;96.55;101936.34;5052635;28;20548;-68
2022/04/11 08:13:42;;;;;;;8.18;3.80;;;;;;;5.96;96.79;101939.72;5019925;28;20032;-68
2022/04/11 08:16:08;;;;;;;6.05;4.13;;;;;;;6.11;96.63;101933.47;5052273;28;20032;-68
2022/04/11 08:18:34;;;;;;;8.50;4.07;;;;;;;6.22;96.22;101930.72;5034528;28;20055;-68
2022/04/11 08:21:03;;;;;;;5.95;3.85;;;;;;;6.37;96.23;101929.72;5035704;28;20032;-68
2022/04/11 08:23:29;;;;;;;7.72;4.07;;;;;;;6.52;95.76;101923.41;5051787;28;20399;-68
2022/04/11 08:25:55;;;;;;;7.45;3.92;;;;;;;6.69;94.93;101914.44;5034116;28;20043;-68
2022/04/11 08:28:21;;;;;;;6.70;3.75;;;;;;;6.87;94.70;101918.59;5052524;28;20029;-68
2022/04/11 08:30:47;;;;;;;7.20;3.65;;;;;;;6.99;93.81;101922.88;5051452;28;20041;-68
2022/04/11 08:33:12;;;;;;;7.07;3.58;;;;;;;7.04;93.02;101921.00;5052123;28;20021;-68
2022/04/11 08:35:38;;;;;;;9.07;4.18;;;;;;;7.11;92.52;101918.31;5051945;28;20080;-68
2022/04/11 08:38:04;;;;;;;7.78;3.80;;;;;;;7.27;92.10;101914.59;5052585;28;20036;-68
2022/04/11 08:40:30;;;;;;;7.25;4.40;;;;;;;7.39;90.35;101910.88;5052697;28;20029;-68
2022/04/11 08:42:56;;;;;;;6.72;4.30;;;;;;;7.51;89.51;101919.50;5052671;28;20107;-68
2022/04/11 08:45:23;;;;;;;8.60;3.85;;;;;;;7.63;89.92;101915.81;5052334;28;20032;-68
2022/04/11 08:47:50;;;;;;;7.80;3.33;;;;;;;7.78;89.60;101919.97;5052476;28;20021;-68
2022/04/11 08:50:16;;;;;;;6.95;4.07;;;;;;;7.97;89.70;101913.50;5052234;28;20032;-69
2022/04/11 08:52:42;;;;;;;10.57;4.05;;;;;;;8.15;89.02;101916.69;5052866;28;20049;-69
2022/04/11 08:55:08;;;;;;;7.82;4.10;;;;;;;8.29;88.95;101919.94;5035332;28;20028;-68
2022/04/11 08:57:37;;;;;;;8.57;3.65;;;;;;;8.44;86.99;101912.63;5036670;28;20441;-69
2022/04/11 09:00:15;;;;;;;8.32;3.58;;;;;;;8.61;85.92;101914.09;5035566;28;20120;-69
2022/04/11 09:02:42;;;;;;;8.15;3.30;;;;;;;8.78;84.71;101917.25;5034017;28;20029;-69
2022/04/11 09:05:08;;;;;;;5.35;3.20;;;;;;;8.92;83.63;101913.44;5033932;28;21359;-69
2022/04/11 09:07:52;;;;;;;4.32;2.90;;;;;;;9.07;81.85;101913.13;5035425;28;20040;-69
2022/04/11 09:10:22;;;;;;;6.90;3.33;;;;;;;9.22;81.93;101908.41;5032840;28;20036;-69
2022/04/11 09:12:59;;;;;;;7.60;3.10;;;;;;;9.33;80.87;101908.16;5034705;28;20556;-69
2022/04/11 09:15:25;;;;;;;8.25;3.22;;;;;;;9.49;80.39;101908.69;5034806;28;20056;-69
2022/04/11 09:17:53;;;;;;;9.60;3.58;;;;;;;9.62;79.15;101903.94;5032152;28;20482;-69
2022/04/11 09:20:24;;;;;;;6.90;2.80;;;;;;;9.73;79.20;101906.31;5052367;28;20040;-69
2022/04/11 09:22:49;;;;;;;4.25;2.67;;;;;;;9.83;78.53;101899.03;5034951;28;20369;-69
2022/04/11 09:25:17;;;;;;;6.15;2.70;;;;;;;9.95;77.41;101896.06;5052264;28;20119;-69
2022/04/11 09:27:44;;;;;;;5.03;2.58;;;;;;;10.03;77.50;101894.09;5005762;28;20740;-69
2022/04/11 09:30:21;;;;;;;3.50;1.95;;;;;;;10.14;75.05;101885.88;5036719;28;20126;-69
2022/04/11 09:33:00;;;;;;;4.13;2.60;;;;;;;10.31;74.85;101881.91;5034426;28;20068;-70
2022/04/11 09:35:27;;;;;;;5.88;2.30;;;;;;;10.40;74.69;101880.78;5054176;28;20033;-69
2022/04/11 09:38:18;;;;;;;3.13;1.88;;;;;;;10.43;73.11;101878.94;5052909;28;20181;-70
2022/04/11 09:40:54;;;;;;;4.43;2.08;;;;;;;10.52;72.92;101871.66;5035321;28;20032;-70
2022/04/11 09:43:31;;;;;;;5.13;2.50;;;;;;;10.65;72.71;101874.81;5051685;28;20487;-69
2022/04/11 09:46:00;;;;;;;4.03;2.45;;;;;;;10.72;73.29;101871.94;5032248;28;21393;-70
2022/04/11 09:48:28;;;;;;;5.15;2.17;;;;;;;10.76;72.21;101883.31;5052937;28;20086;-69
2022/04/11 09:50:55;;;;;;;7.60;2.65;;;;;;;10.86;72.25;101883.91;5035188;28;21348;-70
2022/04/11 09:53:23;;;;;;;4.05;2.20;;;;;;;10.88;71.47;101878.56;5021796;28;20410;-70
2022/04/11 09:55:53;;;;;;;4.30;2.88;;;;;;;10.94;70.56;101873.06;5034346;28;20041;-70
2022/04/11 09:58:20;;;;;;;6.57;2.92;;;;;;;10.97;71.76;101872.97;5031671;28;20047;-67
2022/04/11 10:00:46;;;;;;;6.20;2.58;;;;;;;11.00;71.30;101872.88;5031993;28;20052;-70
2022/04/11 10:03:12;;;;;;;7.10;2.60;;;;;;;11.00;69.08;101871.09;5046991;28;20044;-70
2022/04/11 10:05:39;;;;;;;5.60;2.67;;;;;;;10.94;69.33;101868.63;5051526;28;20087;-75
2022/04/11 10:08:06;;;;;;;6.55;3.05;;;;;;;10.90;68.54;101866.97;5034518;28;20036;-73
2022/04/11 10:10:38;;;;;;;9.35;2.90;;;;;;;10.85;68.42;101860.97;5049955;28;20097;-73
2022/04/11 10:13:06;;;;;;;5.13;2.85;;;;;;;10.85;67.98;101860.97;5034178;28;20407;-73
2022/04/11 10:15:33;;;;;;;3.63;2.55;;;;;;;10.83;66.73;101862.78;5033470;28;20020;-72
2022/04/11 10:17:58;;;;;;;4.38;2.38;;;;;;;10.80;65.51;101860.25;5050564;28;20111;-73
2022/04/11 10:20:29;;;;;;;4.05;2.45;;;;;;;10.86;63.79;101863.56;5032318;28;20043;-71
2022/04/11 10:22:58;;;;;;;3.15;2.63;;;;;;;10.82;64.36;101856.63;5031233;28;20161;-71
2022/04/11 10:25:24;;;;;;;4.95;2.58;;;;;;;10.78;65.00;101859.44;5019634;28;20036;-73
2022/04/11 10:28:16;;;;;;;4.80;2.85;;;;;;;10.77;61.91;101845.31;5031856;28;20427;-76
2022/04/11 10:30:43;;;;;;;7.18;3.13;;;;;;;10.73;63.61;101851.59;5049307;28;20589;-75
2022/04/11 10:33:08;;;;;;;4.57;2.58;;;;;;;10.72;62.30;101847.22;5033320;28;20025;-76
2022/04/11 10:35:44;;;;;;;5.63;3.00;;;;;;;10.78;60.41;101851.47;5032221;28;20101;-75
2022/04/11 10:38:13;;;;;;;5.28;3.00;;;;;;;10.81;61.82;101860.19;5049534;28;20084;-74
2022/04/11 10:40:47;;;;;;;5.25;2.80;;;;;;;10.79;61.43;101855.88;5049681;28;20029;-77
2022/04/11 10:43:13;;;;;;;6.10;2.90;;;;;;;10.75;61.83;101854.22;5035911;28;20204;-74
2022/04/11 10:45:41;;;;;;;5.05;2.78;;;;;;;10.74;62.21;101853.34;5050604;28;20955;-73
2022/04/11 10:48:07;;;;;;;4.45;2.72;;;;;;;10.76;62.31;101853.28;5035867;28;20064;-74
2022/04/11 10:50:34;;;;;;;6.85;3.10;;;;;;;10.77;61.84;101852.38;5032872;28;20564;-73
2022/04/11 10:53:13;;;;;;;5.65;2.72;;;;;;;10.74;61.57;101842.75;5033142;28;20047;-74
2022/04/11 10:55:57;;;;;;;7.43;3.15;;;;;;;10.73;59.97;101841.88;5049991;28;20705;-74
2022/04/11 10:58:58;;;;;;;6.95;3.47;;;;;;;10.77;60.81;101847.94;5050423;28;20032;-72
2022/04/11 11:01:46;;;;;;;8.05;4.30;;;;;;;10.77;60.21;101840.00;5049912;28;20061;-74
2022/04/11 11:04:20;;;;;;;7.45;3.60;;;;;;;10.77;60.67;101841.78;5051440;28;20067;-75
2022/04/11 11:06:46;;;;;;;7.72;3.58;;;;;;;10.73;60.94;101836.59;5028331;28;20636;-76
2022/04/11 11:09:15;;;;;;;5.88;4.25;;;;;;;10.70;60.54;101831.41;5050688;28;20062;-77
2022/04/11 11:11:41;;;;;;;9.13;4.68;;;;;;;10.72;60.49;101829.56;5049639;28;20176;-73
2022/04/11 11:14:40;;;;;;;7.80;4.20;;;;;;;10.71;59.55;101822.53;5048820;28;20479;-73
2022/04/11 11:17:06;;;;;;;6.40;3.70;;;;;;;10.73;60.99;101831.28;5051065;28;20471;-74
2022/04/11 11:19:31;;;;;;;8.10;5.10;;;;;;;10.74;60.68;101821.56;5012011;28;20047;-72
2022/04/11 11:21:58;;;;;;;11.25;5.03;;;;;;;10.79;60.58;101819.63;5033391;28;20033;-72
2022/04/11 11:24:24;;;;;;;6.55;4.55;;;;;;;10.84;60.46;101827.47;5031020;28;20056;-72
2022/04/11 11:26:57;;;;;;;7.10;5.00;;;;;;;10.79;59.49;101819.63;5052424;28;20459;-72
2022/04/11 11:29:33;;;;;;;9.00;5.20;;;;;;;10.82;59.50;101808.97;5053690;28;20258;-72